METAR AND TAF INFORMATION
METAR FOR UUEE
ADDS - METARS form results

(2251 UTC 22 April 2019)
Data provider http://aviationweather.gov/metar/data/
 
METAR text: UUEE 222230Z 30002MPS CAVOK 07/00 Q1027 R24L/CLRD62 NOSIG
Conditions at: UUEE (MOSCOW/SHEREMET', RU) observed 2230 UTC 22 April 2019
Temperature: 7.0°C (45°F)
Dewpoint: 0.0°C (32°F) [RH = 61%]
Pressure (altimeter): 30.32 inches Hg (1027.0 mb)
Winds: from the WNW (300 degrees) at 5 MPH (4 knots; 2.1 m/s)
Visibility: 6 or more miles (10+ km)
Ceiling: ceiling and visibility are OK
Clouds: unknown
Weather: no significant weather observed at this time

METAR text: UUEE 222200Z 29003MPS CAVOK 08/00 Q1027 R24L/CLRD62 NOSIG
Conditions at: UUEE (MOSCOW/SHEREMET', RU) observed 2200 UTC 22 April 2019
Temperature: 8.0°C (46°F)
Dewpoint: 0.0°C (32°F) [RH = 57%]
Pressure (altimeter): 30.32 inches Hg (1027.0 mb)
Winds: from the WNW (290 degrees) at 7 MPH (6 knots; 3.1 m/s)
Visibility: 6 or more miles (10+ km)
Ceiling: ceiling and visibility are OK
Clouds: unknown
Weather: no significant weather observed at this time

Forecast for: UUEE (MOSCOW/SHEREMET', RU)
Text: TAF UUEE 222000Z 2221/2321 30003MPS CAVOK TX20/2312Z TN06/2302Z
Forecast period: 2100 UTC 22 April 2019 to 2100 UTC 23 April 2019
Forecast type: FROM: standard forecast or significant change
Winds: from the WNW (300 degrees) at 7 MPH (6 knots; 3.1 m/s)
Visibility: 6 or more miles 10+ km)
Ceiling: unknown
Clouds: missing
Weather: no significant weather forecast for this period

 AIRPORT MAP

 RUNWAY INFORMATION
Runway 07L Runway length 11647 ft Runway width 197 ft
Runway elevation 620 ft Runway displaced threshold 0 ft Runway heading 75
Runway 25R Runway length 11647 ft Runway width 197 ft
Runway elevation 622 ft Runway displaced threshold 0 ft Runway heading 255
Runway 07R Runway length 12139 ft Runway width 197 ft
Runway elevation 617 ft Runway displaced threshold 0 ft Runway heading 75
Runway 25L Runway length 12139 ft Runway width 197 ft
Runway elevation 620 ft Runway displaced threshold 0 ft Runway heading 255

 AIRPORT FREQUENCIES
Type APP Name APP 1 Frequency 119.3 MHZ
Type APP Name APP 2 Frequency 123.7 MHZ
Type ATIS Name ATIS Frequency 125.125 MHZ
Type GND Name GND Frequency 119 MHZ
Type PMSV Name VOLMET Frequency 127.875 MHZ
Type RDR Name RADAR Frequency 118.1 MHZ
Type TWR Name TWR Frequency 120.7 MHZ

 AIRPORT NEAR NAVIGATION AIDS
Type NDB Name Sheremetyevo Frequency 338 KHZ
Type NDB Name Sheremetyevo Frequency 700 KHZ
Type NDB Name Sheremetyevo Frequency 770 KHZ
Type NDB Name Sheremetyevo Frequency 380 KHZ
Type NDB Name Sheremetyevo Frequency 338 KHZ
Type VOR-DME Name Sheremetyevo Frequency 114600 KHZ
Type NDB Name Sheremetyevo Frequency 700 KHZ
Type NDB Name Sheremetyevo Frequency 770 KHZ
Type NDB Name Sheremetyevo Frequency 380 KHZ


Powered by Virtual Airlines Manager